Walla Walla Airport

About
Name: Walla Walla Airport
Identifier:  ALW/KALW
Serves:  Walla Walla, Washington
Owner:  Port of Walla Walla
Public/Private:  Public
Local Time:  15. Sep 06:53 PDT
Description: Walla Walla Regional Airport is a public airport in the western United States, located in Walla Walla County, Washington. It is three miles northeast of central Walla Walla, and is owned by the Port of Walla Walla.
Source: Wikipedia
Location
Walla Walla
  United States

Runways
Identifier Length (m/ft) Surface
2/20 6,527/6,527 Concrete/Grooved
Statistics
Flights per Day:
6 flights
Distance: 341km (212mi)
Flights delayed:
78% (1 flights per day delayed)
Delay Average: 2 minutes
Current Weather
 16 C (Humidity: 59%)
  8kt (14km/h / 9mph) from 170°
  16km (10 mi.)
 
 METAR KALW 151253Z AUTO 17008KT 10SM CLR 16/08 A2977 RMK AO2 SLP074 T01560078 $

Current Flights

Departures
Number Departure To Airline
On time AS2031 13:30 +2  Seattle  Alaska Airlines
On time AS2023 19:15 +4  Seattle  Alaska Airlines
Arrivals
Number Arrival From Airline
Landed AS2020 22:30  Seattle  Alaska Airlines
On time AS2096 12:42  Seattle  Alaska Airlines

Current Delays

Departures
N/A
Arrivals
N/A

Destinations

Top Destinations
Airport Flights
per week
Seats
per week
  Seattle (SEA) 40 3,021 5 431

Airlines & Planes

Top Airlines
Airline Flights
per Day
Seats
per Day
  Horizon Air 5 431
Top Plane Types
Model Flights Seats
Bombardier Dash 8-400 5.8/day 431/day 431.6666666666667